createdAt,value
2018-02-17T00:00:10.501Z,3.7
2018-02-17T00:00:51.052Z,3.7
2018-02-17T00:01:31.592Z,3.63
2018-02-17T00:02:12.158Z,3.69
2018-02-17T00:02:52.705Z,3.6
2018-02-17T00:03:33.241Z,3.7
2018-02-17T00:04:13.843Z,3.68
2018-02-17T00:04:54.392Z,3.65
2018-02-17T00:05:34.967Z,3.6
2018-02-17T00:06:15.528Z,3.66
2018-02-17T00:06:56.073Z,3.65
2018-02-17T00:07:36.620Z,3.65
2018-02-17T00:08:17.159Z,3.68
2018-02-17T00:08:57.700Z,3.65
2018-02-17T00:09:38.256Z,3.65
2018-02-17T00:10:18.789Z,3.68
2018-02-17T00:10:59.351Z,3.68
2018-02-17T00:11:39.890Z,3.74
2018-02-17T00:12:20.442Z,3.68
2018-02-17T00:13:01.009Z,3.73
2018-02-17T00:13:41.567Z,3.68
2018-02-17T00:14:22.121Z,3.7
2018-02-17T00:15:02.678Z,3.68
2018-02-17T00:15:43.225Z,3.65
2018-02-17T00:16:23.780Z,3.63
2018-02-17T00:17:04.328Z,3.6
2018-02-17T00:17:44.885Z,3.62
2018-02-17T00:18:25.424Z,3.6
2018-02-17T00:19:05.963Z,3.55
2018-02-17T00:19:46.510Z,3.6
2018-02-17T00:20:27.053Z,3.65
2018-02-17T00:21:07.630Z,3.53
2018-02-17T00:21:48.173Z,3.53
2018-02-17T00:22:28.770Z,3.62
2018-02-17T00:23:09.316Z,3.56
2018-02-17T00:23:49.865Z,3.53
2018-02-17T00:24:30.415Z,3.53
2018-02-17T00:25:10.967Z,3.53
2018-02-17T00:25:51.526Z,3.55
2018-02-17T00:26:32.084Z,3.51
2018-02-17T00:27:12.646Z,3.47
2018-02-17T00:27:53.184Z,3.51
2018-02-17T00:28:33.721Z,3.47
2018-02-17T00:29:14.266Z,3.53
2018-02-17T00:29:54.822Z,3.5
2018-02-17T00:30:35.386Z,3.51
2018-02-17T00:31:15.937Z,3.51
2018-02-17T00:31:56.510Z,3.53
2018-02-17T00:32:37.033Z,3.5
2018-02-17T00:33:17.608Z,3.44
2018-02-17T00:33:58.163Z,3.48
2018-02-17T00:34:38.738Z,3.45
2018-02-17T00:35:19.273Z,3.5
2018-02-17T00:35:59.818Z,3.4
2018-02-17T00:36:40.369Z,3.45
2018-02-17T00:37:20.916Z,3.41
2018-02-17T00:38:01.463Z,3.53
2018-02-17T00:38:42.014Z,3.5
2018-02-17T00:39:22.560Z,3.45
2018-02-17T00:40:03.123Z,3.56
2018-02-17T00:40:43.678Z,3.47
2018-02-17T00:41:24.223Z,3.45
2018-02-17T00:42:04.774Z,3.48
2018-02-17T00:42:45.347Z,3.47
2018-02-17T00:43:25.899Z,3.48
2018-02-17T00:44:06.449Z,3.55
2018-02-17T00:44:47.000Z,3.51
2018-02-17T00:45:27.560Z,3.51
2018-02-17T00:46:08.128Z,3.51
2018-02-17T00:46:48.681Z,3.51
2018-02-17T00:47:29.217Z,3.55
2018-02-17T00:48:09.773Z,3.51
2018-02-17T00:48:50.317Z,3.48
2018-02-17T00:49:30.868Z,3.51
2018-02-17T00:50:11.435Z,3.51
2018-02-17T00:50:52.004Z,3.44
2018-02-17T00:51:32.548Z,3.51
2018-02-17T00:52:13.092Z,3.42
2018-02-17T00:52:53.652Z,3.45
2018-02-17T00:53:34.201Z,3.5
2018-02-17T00:54:14.755Z,3.42
2018-02-17T00:54:55.297Z,3.5
2018-02-17T00:55:35.882Z,3.42
2018-02-17T00:56:16.438Z,3.37
2018-02-17T00:56:56.989Z,3.42
2018-02-17T00:57:37.592Z,3.45
2018-02-17T00:58:18.148Z,3.48
2018-02-17T00:58:58.684Z,3.42
2018-02-17T00:59:39.229Z,3.45
2018-02-17T01:00:19.775Z,3.42
2018-02-17T01:01:00.320Z,3.41
2018-02-17T01:01:40.895Z,3.41
2018-02-17T01:02:21.463Z,3.4
2018-02-17T01:03:02.011Z,3.41
2018-02-17T01:03:42.556Z,3.41
2018-02-17T01:04:23.106Z,3.37
2018-02-17T01:05:03.648Z,3.41
2018-02-17T01:05:44.213Z,3.37
2018-02-17T01:06:24.753Z,3.37
2018-02-17T01:07:05.286Z,3.37
2018-02-17T01:07:45.839Z,3.31
2018-02-17T01:08:26.379Z,3.29
2018-02-17T01:09:06.934Z,3.32
2018-02-17T01:09:47.487Z,3.29
2018-02-17T01:10:28.036Z,3.25
2018-02-17T01:11:08.578Z,3.25
2018-02-17T01:11:49.131Z,3.29
2018-02-17T01:12:29.691Z,3.29
2018-02-17T01:13:10.246Z,3.29
2018-02-17T01:13:50.792Z,3.22
2018-02-17T01:14:31.396Z,3.26
2018-02-17T01:15:11.930Z,3.36
2018-02-17T01:15:52.478Z,3.29
2018-02-17T01:16:33.018Z,3.28
2018-02-17T01:17:13.568Z,3.25
2018-02-17T01:17:54.097Z,3.23
2018-02-17T01:18:34.659Z,3.23
2018-02-17T01:19:15.215Z,3.29
2018-02-17T01:19:55.761Z,3.25
2018-02-17T01:20:36.307Z,3.29
2018-02-17T01:21:16.859Z,3.28
2018-02-17T01:21:57.410Z,3.28
2018-02-17T01:22:37.964Z,3.26
2018-02-17T01:23:18.502Z,3.26
2018-02-17T01:23:59.049Z,3.31
2018-02-17T01:24:39.615Z,3.32
2018-02-17T01:25:20.185Z,3.26
2018-02-17T01:26:00.747Z,3.23
2018-02-17T01:26:41.303Z,3.21
2018-02-17T01:27:21.871Z,3.25
2018-02-17T01:28:02.412Z,3.23
2018-02-17T01:28:42.976Z,3.28
2018-02-17T01:29:23.520Z,3.28
2018-02-17T01:30:04.078Z,3.23
2018-02-17T01:30:44.636Z,3.18
2018-02-17T01:31:25.174Z,3.16
2018-02-17T01:32:05.721Z,3.07
2018-02-17T01:32:46.272Z,3.1
2018-02-17T01:33:26.822Z,3.1
2018-02-17T01:34:07.374Z,3.07
2018-02-17T01:34:47.928Z,3.07
2018-02-17T01:35:28.516Z,3.14
2018-02-17T01:36:09.067Z,3.05
2018-02-17T01:36:49.617Z,3.05
2018-02-17T01:37:30.176Z,3.08
2018-02-17T01:38:10.724Z,3.1
2018-02-17T01:38:51.305Z,3.11
2018-02-17T01:39:31.844Z,3.05
2018-02-17T01:40:12.388Z,2.98
2018-02-17T01:40:52.932Z,2.83
2018-02-17T01:41:33.490Z,2.93
2018-02-17T01:42:14.037Z,2.89
2018-02-17T01:42:54.646Z,2.85
2018-02-17T01:43:35.198Z,2.83
2018-02-17T01:44:15.753Z,2.85
2018-02-17T01:44:56.304Z,2.75
2018-02-17T01:45:36.853Z,2.72
2018-02-17T01:46:17.405Z,2.74
2018-02-17T01:46:57.974Z,2.71
2018-02-17T01:47:38.516Z,2.62
2018-02-17T01:48:19.085Z,2.71
2018-02-17T01:48:59.668Z,2.62
2018-02-17T01:49:40.213Z,2.65
2018-02-17T01:50:20.777Z,2.67
2018-02-17T01:51:01.345Z,2.68
2018-02-17T01:51:41.887Z,2.67
2018-02-17T01:52:22.448Z,2.61
2018-02-17T01:53:02.995Z,2.69
2018-02-17T01:53:43.560Z,2.68
2018-02-17T01:54:24.863Z,2.6
2018-02-17T01:55:05.407Z,2.65
2018-02-17T01:55:45.954Z,2.71
2018-02-17T01:56:26.504Z,2.69
2018-02-17T01:57:07.063Z,2.68
2018-02-17T01:57:47.610Z,2.77
2018-02-17T01:58:28.171Z,2.8
2018-02-17T01:59:08.731Z,2.72
2018-02-17T01:59:49.283Z,2.83
2018-02-17T02:00:29.833Z,2.9
2018-02-17T02:01:10.403Z,2.95
2018-02-17T02:01:50.964Z,2.86
2018-02-17T02:02:31.479Z,2.92
2018-02-17T02:03:12.004Z,2.87
2018-02-17T02:03:52.572Z,2.89
2018-02-17T02:04:33.142Z,2.86
2018-02-17T02:05:13.692Z,2.98
2018-02-17T02:05:54.231Z,2.89
2018-02-17T02:06:34.796Z,2.89
2018-02-17T02:07:15.337Z,2.86
2018-02-17T02:07:55.912Z,2.89
2018-02-17T02:08:36.457Z,2.89
2018-02-17T02:09:17.010Z,2.92
2018-02-17T02:09:57.554Z,2.86
2018-02-17T02:10:38.091Z,2.9
2018-02-17T02:11:18.648Z,2.89
2018-02-17T02:11:59.202Z,2.82
2018-02-17T02:12:39.804Z,2.87
2018-02-17T02:13:20.333Z,2.92
2018-02-17T02:14:00.870Z,2.89
2018-02-17T02:14:41.422Z,2.87
2018-02-17T02:15:21.961Z,2.92
2018-02-17T02:16:02.514Z,2.92
2018-02-17T02:16:43.087Z,2.89
2018-02-17T02:17:23.613Z,2.89
2018-02-17T02:18:04.198Z,2.92
2018-02-17T02:18:44.771Z,2.85
2018-02-17T02:19:25.319Z,2.9
2018-02-17T02:20:05.869Z,3.01
2018-02-17T02:20:46.414Z,3.01
2018-02-17T02:21:26.960Z,3.03
2018-02-17T02:22:07.528Z,3.03
2018-02-17T02:22:48.072Z,3.1
2018-02-17T02:23:28.633Z,3.1
2018-02-17T02:24:09.218Z,3.11
2018-02-17T02:24:49.776Z,3.11
2018-02-17T02:25:30.332Z,3.23
2018-02-17T02:26:10.880Z,3.16
2018-02-17T02:26:51.420Z,3.16
2018-02-17T02:27:31.985Z,3.18
2018-02-17T02:28:12.566Z,3.16
2018-02-17T02:28:53.134Z,3.19
2018-02-17T02:29:33.669Z,3.26
2018-02-17T02:30:14.381Z,3.19
2018-02-17T02:30:54.951Z,3.31
2018-02-17T02:31:35.518Z,3.22
2018-02-17T02:32:16.090Z,3.21
2018-02-17T02:32:56.649Z,3.32
2018-02-17T02:33:37.239Z,3.34
2018-02-17T02:34:17.802Z,3.36
2018-02-17T02:34:58.348Z,3.25
2018-02-17T02:35:38.899Z,3.29
2018-02-17T02:36:19.465Z,3.41
2018-02-17T02:37:00.021Z,3.32
2018-02-17T02:37:40.573Z,3.34
2018-02-17T02:38:21.120Z,3.28
2018-02-17T02:39:01.666Z,3.31
2018-02-17T02:39:42.234Z,3.37
2018-02-17T02:40:22.777Z,3.4
2018-02-17T02:41:03.342Z,3.42
2018-02-17T02:41:43.904Z,3.31
2018-02-17T02:42:24.454Z,3.34
2018-02-17T02:43:05.002Z,3.42
2018-02-17T02:43:45.555Z,3.4
2018-02-17T02:44:26.123Z,3.42
2018-02-17T02:45:06.668Z,3.44
2018-02-17T02:45:47.236Z,3.47
2018-02-17T02:46:27.790Z,3.42
2018-02-17T02:47:08.341Z,3.41
2018-02-17T02:47:48.892Z,3.47
2018-02-17T02:48:29.462Z,3.44
2018-02-17T02:49:10.020Z,3.48
2018-02-17T02:49:50.567Z,3.5
2018-02-17T02:50:31.120Z,3.4
2018-02-17T02:51:11.668Z,3.42
2018-02-17T02:51:52.242Z,3.48
2018-02-17T02:52:32.794Z,3.51
2018-02-17T02:53:13.348Z,3.45
2018-02-17T02:53:53.946Z,3.5
2018-02-17T02:54:34.519Z,3.55
2018-02-17T02:55:15.046Z,3.55
2018-02-17T02:55:55.607Z,3.48
2018-02-17T02:56:36.675Z,3.44
2018-02-17T02:57:17.291Z,3.44
2018-02-17T02:57:57.841Z,3.4
2018-02-17T02:58:38.379Z,3.4
2018-02-17T02:59:18.930Z,3.45
2018-02-17T02:59:59.504Z,3.42
2018-02-17T03:00:40.129Z,3.34
2018-02-17T03:01:20.698Z,3.4
2018-02-17T03:02:01.289Z,3.36
2018-02-17T03:02:41.890Z,3.4
2018-02-17T03:03:22.437Z,3.37
2018-02-17T03:04:03.014Z,3.34
2018-02-17T03:04:43.586Z,3.4
2018-02-17T03:05:24.176Z,3.44
2018-02-17T03:06:04.722Z,3.42
2018-02-17T03:06:45.286Z,3.37
2018-02-17T03:07:25.845Z,3.31
2018-02-17T03:08:06.401Z,3.36
2018-02-17T03:08:46.982Z,3.4
2018-02-17T03:09:27.555Z,3.44
2018-02-17T03:10:08.120Z,3.34
2018-02-17T03:10:48.689Z,3.37
2018-02-17T03:11:29.234Z,3.42
2018-02-17T03:12:09.866Z,3.44
2018-02-17T03:12:50.485Z,3.4
2018-02-17T03:13:31.044Z,3.41
2018-02-17T03:14:11.594Z,3.4
2018-02-17T03:14:52.151Z,3.32
2018-02-17T03:15:32.774Z,3.34
2018-02-17T03:16:13.378Z,3.42
2018-02-17T03:16:53.976Z,3.41
2018-02-17T03:17:34.496Z,3.37
2018-02-17T03:18:15.059Z,3.42
2018-02-17T03:18:55.628Z,3.44
2018-02-17T03:19:36.181Z,3.44
2018-02-17T03:20:16.731Z,3.44
2018-02-17T03:20:57.285Z,3.42
2018-02-17T03:21:37.860Z,3.42
2018-02-17T03:22:18.408Z,3.42
2018-02-17T03:22:58.968Z,3.5
2018-02-17T03:23:39.570Z,3.45
2018-02-17T03:24:20.131Z,3.53
2018-02-17T03:25:00.675Z,3.53
2018-02-17T03:25:41.289Z,3.53
2018-02-17T03:26:21.858Z,3.53
2018-02-17T03:27:02.403Z,3.53
2018-02-17T03:27:42.960Z,3.51
2018-02-17T03:28:23.584Z,3.51
2018-02-17T03:29:04.188Z,3.51
2018-02-17T03:29:44.735Z,3.55
2018-02-17T03:30:25.289Z,3.51
2018-02-17T03:31:05.851Z,3.53
2018-02-17T03:31:46.484Z,3.5
2018-02-17T03:32:26.994Z,3.53
2018-02-17T03:33:07.578Z,3.59
2018-02-17T03:33:48.106Z,3.53
2018-02-17T03:34:28.661Z,3.58
2018-02-17T03:35:09.225Z,3.63
2018-02-17T03:35:49.772Z,3.65
2018-02-17T03:36:30.333Z,3.59
2018-02-17T03:37:10.893Z,3.58
2018-02-17T03:37:51.464Z,3.53
2018-02-17T03:38:32.008Z,3.59
2018-02-17T03:39:12.564Z,3.65
2018-02-17T03:39:53.125Z,3.65
2018-02-17T03:40:33.712Z,3.59
2018-02-17T03:41:14.291Z,3.55
2018-02-17T03:41:54.866Z,3.65
2018-02-17T03:42:35.417Z,3.58
2018-02-17T03:43:15.986Z,3.55
2018-02-17T03:43:56.543Z,3.6
2018-02-17T03:44:37.141Z,3.66
2018-02-17T03:45:17.699Z,3.58
2018-02-17T03:45:58.272Z,3.59
2018-02-17T03:46:38.876Z,3.55
2018-02-17T03:47:19.382Z,3.59
2018-02-17T03:47:59.940Z,3.58
2018-02-17T03:48:40.505Z,3.6
2018-02-17T03:49:21.056Z,3.6
2018-02-17T03:50:01.597Z,3.56
2018-02-17T03:50:42.146Z,3.63
2018-02-17T03:51:22.709Z,3.6
2018-02-17T03:52:03.239Z,3.58
2018-02-17T03:52:43.788Z,3.63
2018-02-17T03:53:24.340Z,3.56
2018-02-17T03:54:04.898Z,3.6
2018-02-17T03:54:45.456Z,3.6
2018-02-17T03:55:26.007Z,3.6
2018-02-17T03:56:06.544Z,3.55
2018-02-17T03:56:47.101Z,3.59
2018-02-17T03:57:27.652Z,3.62
2018-02-17T03:58:08.206Z,3.59
2018-02-17T03:58:48.763Z,3.63
2018-02-17T03:59:29.324Z,3.55
2018-02-17T04:00:09.869Z,3.58
2018-02-17T04:00:50.418Z,3.55
2018-02-17T04:01:30.961Z,3.6
2018-02-17T04:02:11.499Z,3.65
2018-02-17T04:02:52.068Z,3.59
2018-02-17T04:03:32.626Z,3.65
2018-02-17T04:04:13.168Z,3.59
2018-02-17T04:04:53.708Z,3.65
2018-02-17T04:05:34.260Z,3.68
2018-02-17T04:06:14.809Z,3.62
2018-02-17T04:06:55.373Z,3.59
2018-02-17T04:07:35.921Z,3.56
2018-02-17T04:08:16.463Z,3.6
2018-02-17T04:08:57.025Z,3.62
2018-02-17T04:09:37.633Z,3.66
2018-02-17T04:10:18.188Z,3.62
2018-02-17T04:10:58.747Z,3.59
2018-02-17T04:11:39.313Z,3.59
2018-02-17T04:12:19.873Z,3.59
2018-02-17T04:13:00.428Z,3.6
2018-02-17T04:13:41.122Z,3.59
2018-02-17T04:14:21.693Z,3.62
2018-02-17T04:15:02.254Z,3.51
2018-02-17T04:15:42.782Z,3.69
2018-02-17T04:16:23.351Z,3.55
2018-02-17T04:17:03.904Z,3.5
2018-02-17T04:17:44.473Z,3.5
2018-02-17T04:18:25.035Z,3.53
2018-02-17T04:19:05.587Z,3.51
2018-02-17T04:19:46.146Z,3.53
2018-02-17T04:20:26.731Z,3.53
2018-02-17T04:21:07.308Z,3.5
2018-02-17T04:21:47.854Z,3.51
2018-02-17T04:22:28.395Z,3.45
2018-02-17T04:23:08.946Z,3.47
2018-02-17T04:23:49.501Z,3.42
2018-02-17T04:24:30.050Z,3.34
2018-02-17T04:25:10.634Z,3.36
2018-02-17T04:25:51.220Z,3.37
2018-02-17T04:26:31.780Z,3.34
2018-02-17T04:27:12.326Z,3.26
2018-02-17T04:27:52.874Z,3.29
2018-02-17T04:28:33.429Z,3.32
2018-02-17T04:29:13.988Z,3.32
2018-02-17T04:29:54.548Z,3.36
2018-02-17T04:30:35.106Z,3.26
2018-02-17T04:31:15.644Z,3.23
2018-02-17T04:31:56.195Z,3.25
2018-02-17T04:32:36.743Z,3.21
2018-02-17T04:33:17.293Z,3.25
2018-02-17T04:33:57.846Z,3.19
2018-02-17T04:34:38.398Z,3.18
2018-02-17T04:35:18.947Z,3.19
2018-02-17T04:35:59.516Z,3.21
2018-02-17T04:36:40.076Z,3.22
2018-02-17T04:37:20.617Z,3.16
2018-02-17T04:38:01.150Z,3.21
2018-02-17T04:38:41.704Z,3.22
2018-02-17T04:39:22.262Z,3.18
2018-02-17T04:40:02.812Z,3.16
2018-02-17T04:40:43.393Z,3.08
2018-02-17T04:41:23.987Z,3.08
2018-02-17T04:42:04.695Z,3.08
2018-02-17T04:42:45.242Z,3.14
2018-02-17T04:43:25.774Z,3.05
2018-02-17T04:44:06.332Z,3.1
2018-02-17T04:44:46.877Z,3.04
2018-02-17T04:45:27.429Z,3.05
2018-02-17T04:46:07.983Z,3.05
2018-02-17T04:46:48.577Z,2.98
2018-02-17T04:47:29.124Z,3.03
2018-02-17T04:48:09.676Z,3.04
2018-02-17T04:48:50.228Z,3.08
2018-02-17T04:49:30.777Z,3.03
2018-02-17T04:50:11.339Z,3.08
2018-02-17T04:50:51.908Z,3.08
2018-02-17T04:51:32.458Z,3.08
2018-02-17T04:52:13.011Z,3.07
2018-02-17T04:52:53.578Z,3.08
2018-02-17T04:53:34.140Z,3.14
2018-02-17T04:54:14.694Z,3.05
2018-02-17T04:54:55.252Z,3.18
2018-02-17T04:55:35.787Z,3.13
2018-02-17T04:56:16.335Z,3.13
2018-02-17T04:56:56.928Z,3.18
2018-02-17T04:57:37.451Z,3.19
2018-02-17T04:58:18.014Z,3.19
2018-02-17T04:58:58.577Z,3.23
2018-02-17T04:59:39.172Z,3.28
2018-02-17T05:00:19.712Z,3.29
2018-02-17T05:01:00.317Z,3.25
2018-02-17T05:01:40.872Z,3.31
2018-02-17T05:02:21.434Z,3.29
2018-02-17T05:03:01.991Z,3.29
2018-02-17T05:03:42.539Z,3.31
2018-02-17T05:04:23.098Z,3.37
2018-02-17T05:05:03.648Z,3.36
2018-02-17T05:05:44.217Z,3.34
2018-02-17T05:06:24.790Z,3.36
2018-02-17T05:07:05.360Z,3.36
2018-02-17T05:07:45.915Z,3.4
2018-02-17T05:08:26.471Z,3.47
2018-02-17T05:09:07.016Z,3.44
2018-02-17T05:09:47.569Z,3.42
2018-02-17T05:10:28.118Z,3.42
2018-02-17T05:11:08.756Z,3.45
2018-02-17T05:11:49.298Z,3.44
2018-02-17T05:12:29.849Z,3.44
2018-02-17T05:13:10.408Z,3.5
2018-02-17T05:13:50.954Z,3.48
2018-02-17T05:14:31.654Z,3.51
2018-02-17T05:15:12.184Z,3.45
2018-02-17T05:15:52.750Z,3.5
2018-02-17T05:16:33.285Z,3.51
2018-02-17T05:17:13.834Z,3.55
2018-02-17T05:17:54.378Z,3.53
2018-02-17T05:18:34.927Z,3.51
2018-02-17T05:19:15.486Z,3.55
2018-02-17T05:19:56.044Z,3.56
2018-02-17T05:20:36.590Z,3.51
2018-02-17T05:21:17.164Z,3.56
2018-02-17T05:21:57.760Z,3.63
2018-02-17T05:22:38.300Z,3.59
2018-02-17T05:23:18.910Z,3.53
2018-02-17T05:23:59.428Z,3.65
2018-02-17T05:24:39.995Z,3.53
2018-02-17T05:25:20.554Z,3.63
2018-02-17T05:26:01.108Z,3.58
2018-02-17T05:26:41.657Z,3.59
2018-02-17T05:27:22.212Z,3.62
2018-02-17T05:28:02.756Z,3.62
2018-02-17T05:28:43.311Z,3.6
2018-02-17T05:29:23.862Z,3.6
2018-02-17T05:30:04.428Z,3.59
2018-02-17T05:30:45.001Z,3.65
2018-02-17T05:31:25.567Z,3.68
2018-02-17T05:32:06.219Z,3.62
2018-02-17T05:32:46.783Z,3.68
2018-02-17T05:33:27.366Z,3.69
2018-02-17T05:34:07.916Z,3.73
2018-02-17T05:34:48.526Z,3.74
2018-02-17T05:35:29.052Z,3.81
2018-02-17T05:36:09.599Z,3.77
2018-02-17T05:36:50.145Z,3.77
2018-02-17T05:37:30.701Z,3.78
2018-02-17T05:38:11.247Z,3.74
2018-02-17T05:38:51.791Z,3.8
2018-02-17T05:39:32.333Z,3.81
2018-02-17T05:40:12.887Z,3.76
2018-02-17T05:40:53.533Z,3.76
2018-02-17T05:41:34.082Z,3.8
2018-02-17T05:42:14.654Z,3.83
2018-02-17T05:42:55.195Z,3.78
2018-02-17T05:43:35.745Z,3.78
2018-02-17T05:44:16.593Z,3.78
2018-02-17T05:44:57.142Z,3.8
2018-02-17T05:45:37.832Z,3.8
2018-02-17T05:46:18.284Z,3.8
2018-02-17T05:46:58.903Z,3.81
2018-02-17T05:47:39.476Z,3.78
2018-02-17T05:48:20.173Z,3.83
2018-02-17T05:49:00.868Z,3.74
2018-02-17T05:49:41.405Z,3.83
2018-02-17T05:50:21.976Z,3.8
2018-02-17T05:51:02.616Z,3.8
2018-02-17T05:51:43.072Z,3.8
2018-02-17T05:52:23.664Z,3.78
2018-02-17T05:53:04.249Z,3.73
2018-02-17T05:53:44.797Z,3.81
2018-02-17T05:54:25.512Z,3.77
2018-02-17T05:55:05.992Z,3.77
2018-02-17T05:55:46.537Z,3.8
2018-02-17T05:56:27.089Z,3.78
2018-02-17T05:57:07.642Z,3.76
2018-02-17T05:57:48.224Z,3.76
2018-02-17T05:58:28.785Z,3.77
2018-02-17T05:59:09.358Z,3.77
2018-02-17T05:59:49.918Z,3.81
2018-02-17T06:00:30.467Z,3.77
2018-02-17T06:01:11.037Z,3.8
2018-02-17T06:01:51.612Z,3.78
2018-02-17T06:02:32.199Z,3.78
2018-02-17T06:03:12.745Z,3.81
2018-02-17T06:03:53.354Z,3.78
2018-02-17T06:04:33.911Z,3.77
2018-02-17T06:05:14.502Z,3.8
2018-02-17T06:05:55.033Z,3.87
2018-02-17T06:06:35.594Z,3.86
2018-02-17T06:07:16.139Z,3.91
2018-02-17T06:07:56.690Z,3.87
2018-02-17T06:08:37.262Z,3.83
2018-02-17T06:09:17.816Z,3.92
2018-02-17T06:09:58.417Z,3.84
2018-02-17T06:10:38.968Z,3.94
2018-02-17T06:11:19.536Z,3.87
2018-02-17T06:12:00.088Z,3.88
2018-02-17T06:12:40.835Z,3.92
2018-02-17T06:13:21.415Z,3.86
2018-02-17T06:14:01.968Z,3.84
2018-02-17T06:14:42.539Z,3.86
2018-02-17T06:15:23.060Z,3.88
2018-02-17T06:16:03.607Z,3.86
2018-02-17T06:16:44.163Z,3.83
2018-02-17T06:17:24.715Z,3.83
2018-02-17T06:18:05.277Z,3.8
2018-02-17T06:18:45.821Z,3.81
2018-02-17T06:19:26.388Z,3.81
2018-02-17T06:20:06.960Z,3.78
2018-02-17T06:20:47.510Z,3.8
2018-02-17T06:21:28.087Z,3.83
2018-02-17T06:22:08.656Z,3.86
2018-02-17T06:22:49.225Z,3.86
2018-02-17T06:23:29.792Z,3.86
2018-02-17T06:24:10.345Z,3.81
2018-02-17T06:24:50.911Z,3.87
2018-02-17T06:25:31.437Z,3.87
2018-02-17T06:26:11.981Z,3.86
2018-02-17T06:26:52.554Z,3.87
2018-02-17T06:27:33.267Z,3.88
2018-02-17T06:28:13.839Z,3.87
2018-02-17T06:28:54.389Z,3.83
2018-02-17T06:29:34.936Z,3.87
2018-02-17T06:30:15.494Z,3.87
2018-02-17T06:30:56.047Z,3.87
2018-02-17T06:31:36.610Z,3.87
2018-02-17T06:32:17.157Z,3.87
2018-02-17T06:32:57.707Z,3.96
2018-02-17T06:33:38.256Z,3.86
2018-02-17T06:34:18.812Z,3.83
2018-02-17T06:34:59.355Z,3.78
2018-02-17T06:35:39.914Z,3.83
2018-02-17T06:36:20.456Z,3.77
2018-02-17T06:37:01.743Z,3.83
2018-02-17T06:37:42.291Z,3.87
2018-02-17T06:38:22.848Z,3.84
2018-02-17T06:39:03.409Z,3.81
2018-02-17T06:39:44.152Z,3.86
2018-02-17T06:40:24.700Z,3.92
2018-02-17T06:41:05.253Z,3.87
2018-02-17T06:41:45.857Z,3.94
2018-02-17T06:42:26.408Z,3.92
2018-02-17T06:43:07.105Z,4.01
2018-02-17T06:43:47.664Z,3.96
2018-02-17T06:44:28.219Z,4.05
2018-02-17T06:45:08.774Z,4.04
2018-02-17T06:45:49.329Z,4.04
2018-02-17T06:46:29.867Z,4.05
2018-02-17T06:47:10.418Z,4.02
2018-02-17T06:47:50.973Z,4.01
2018-02-17T06:48:31.554Z,3.99
2018-02-17T06:49:12.140Z,4.02
2018-02-17T06:49:52.705Z,3.98
2018-02-17T06:50:33.276Z,4.02
2018-02-17T06:51:13.811Z,4.06
2018-02-17T06:51:54.362Z,4.05
2018-02-17T06:52:34.923Z,4.01
2018-02-17T06:53:15.467Z,4.06
2018-02-17T06:53:56.015Z,4.02
2018-02-17T06:54:36.573Z,4.02
2018-02-17T06:55:17.123Z,4.06
2018-02-17T06:55:57.668Z,4.05
2018-02-17T06:56:38.219Z,4.06
2018-02-17T06:57:18.791Z,4.01
2018-02-17T06:57:59.342Z,4.02
2018-02-17T06:58:39.882Z,4.04
2018-02-17T06:59:20.446Z,4.08
2018-02-17T07:00:00.998Z,4.02
2018-02-17T07:00:41.544Z,4.13
2018-02-17T07:01:22.095Z,4.12
2018-02-17T07:02:02.653Z,4.1
2018-02-17T07:02:43.205Z,4.06
2018-02-17T07:03:23.754Z,4.17
2018-02-17T07:04:04.303Z,4.12
2018-02-17T07:04:44.856Z,4.13
2018-02-17T07:05:25.654Z,4.14
2018-02-17T07:06:06.222Z,4.16
2018-02-17T07:06:46.991Z,4.14
2018-02-17T07:07:27.572Z,4.19
2018-02-17T07:08:08.181Z,4.16
2018-02-17T07:08:48.714Z,4.19
2018-02-17T07:09:29.301Z,4.23
2018-02-17T07:10:09.818Z,4.24
2018-02-17T07:10:50.445Z,4.17
2018-02-17T07:11:31.148Z,4.16
2018-02-17T07:12:11.706Z,4.19
2018-02-17T07:12:52.428Z,4.22
2018-02-17T07:16:37.458Z,4.28
2018-02-17T07:17:18.048Z,4.28
2018-02-17T07:17:58.796Z,4.23
2018-02-17T07:18:39.323Z,4.3
2018-02-17T07:19:19.867Z,4.23
2018-02-17T07:20:00.414Z,4.26
2018-02-17T07:20:40.971Z,4.23
2018-02-17T07:21:21.518Z,4.26
2018-02-17T07:22:02.074Z,4.23
2018-02-17T07:22:42.641Z,4.24
2018-02-17T07:23:23.182Z,4.23
2018-02-17T07:24:03.717Z,4.23
2018-02-17T07:24:44.299Z,4.28
2018-02-17T07:25:24.858Z,4.2
2018-02-17T07:26:05.398Z,4.32
2018-02-17T07:26:45.947Z,4.23
2018-02-17T07:27:26.499Z,4.31
2018-02-17T07:28:07.054Z,4.35
2018-02-17T07:28:47.655Z,4.31
2018-02-17T07:29:28.189Z,4.4
2018-02-17T07:30:08.821Z,4.32
2018-02-17T07:30:49.472Z,4.34
2018-02-17T07:31:30.035Z,4.34
2018-02-17T07:32:10.626Z,4.35
2018-02-17T07:32:51.161Z,4.38
2018-02-17T07:33:31.768Z,4.37
2018-02-17T07:34:12.287Z,4.32
2018-02-17T07:34:52.845Z,4.32
2018-02-17T07:35:33.612Z,4.37
2018-02-17T07:36:14.159Z,4.34
2018-02-17T07:36:54.709Z,4.4
2018-02-17T07:37:35.260Z,4.31
2018-02-17T07:38:15.835Z,4.37
2018-02-17T07:38:56.568Z,4.44
2018-02-17T07:39:37.456Z,4.45
2018-02-17T07:40:18.195Z,4.41
2018-02-17T07:41:00.060Z,4.48
2018-02-17T07:41:40.599Z,4.48
2018-02-17T07:42:21.270Z,4.44
2018-02-17T07:43:02.434Z,4.44
2018-02-17T07:43:43.339Z,4.42
2018-02-17T07:44:23.912Z,4.41
2018-02-17T07:45:05.669Z,4.44
2018-02-17T07:45:46.398Z,4.44
2018-02-17T07:46:26.873Z,4.42
2018-02-17T07:47:07.544Z,4.37
2018-02-17T07:47:48.112Z,4.4
2018-02-17T07:48:28.705Z,4.45
2018-02-17T07:49:09.258Z,4.41
2018-02-17T07:49:49.788Z,4.44
2018-02-17T07:50:30.358Z,4.45
2018-02-17T07:51:10.917Z,4.49
2018-02-17T07:51:51.582Z,4.41
2018-02-17T07:52:32.137Z,4.44
2018-02-17T07:53:12.789Z,4.42
2018-02-17T07:53:53.333Z,4.42
2018-02-17T07:54:33.900Z,4.49
2018-02-17T07:55:14.755Z,4.45
2018-02-17T07:55:55.844Z,4.5
2018-02-17T07:56:36.531Z,4.48
2018-02-17T07:57:17.083Z,4.42
2018-02-17T07:57:57.638Z,4.42
2018-02-17T07:58:38.183Z,4.44
2018-02-17T07:59:18.901Z,4.48
2018-02-17T07:59:59.437Z,4.58
2018-02-17T08:00:40.511Z,4.41
2018-02-17T08:01:21.053Z,4.55
2018-02-17T08:02:01.666Z,4.58
2018-02-17T08:02:42.222Z,4.5
2018-02-17T08:03:22.797Z,4.52
2018-02-17T08:04:03.373Z,4.55
2018-02-17T08:04:43.971Z,4.55
2018-02-17T08:05:24.481Z,4.52
2018-02-17T08:06:05.022Z,4.53
2018-02-17T08:06:45.614Z,4.58
2018-02-17T08:07:26.171Z,4.6
2018-02-17T08:08:13.425Z,4.62
2018-02-17T08:08:53.973Z,4.63
2018-02-17T08:09:34.541Z,4.63
2018-02-17T08:10:15.082Z,4.6
2018-02-17T08:10:55.607Z,4.59
2018-02-17T08:11:36.186Z,4.55
2018-02-17T08:12:16.882Z,4.49
2018-02-17T08:12:57.541Z,4.53
2018-02-17T08:13:38.172Z,4.55
2018-02-17T08:14:18.745Z,4.55
2018-02-17T08:14:59.583Z,4.55
2018-02-17T08:15:40.373Z,4.55
2018-02-17T08:16:20.969Z,4.53
2018-02-17T08:17:01.592Z,4.52
2018-02-17T08:17:42.145Z,4.53
2018-02-17T08:18:22.740Z,4.5
2018-02-17T08:19:04.425Z,4.55
2018-02-17T08:19:45.187Z,4.49
2018-02-17T08:20:25.821Z,4.52
2018-02-17T08:21:06.479Z,4.56
2018-02-17T08:21:47.211Z,4.5
2018-02-17T08:22:28.750Z,4.53
2018-02-17T08:23:10.810Z,4.53
2018-02-17T08:23:51.926Z,4.53
2018-02-17T08:24:32.776Z,4.66
2018-02-17T08:25:13.305Z,4.56
2018-02-17T08:25:53.921Z,4.67
2018-02-17T08:26:34.520Z,4.67
2018-02-17T08:27:15.125Z,4.66
2018-02-17T08:27:55.718Z,4.66
2018-02-17T08:28:36.281Z,4.63
2018-02-17T08:29:16.831Z,4.66
2018-02-17T08:29:57.417Z,4.66
2018-02-17T08:30:38.074Z,4.62
2018-02-17T08:31:18.559Z,4.67
2018-02-17T08:31:59.150Z,4.66
2018-02-17T08:32:39.765Z,4.59
2018-02-17T08:33:20.380Z,4.68
2018-02-17T08:34:00.947Z,4.58
2018-02-17T08:34:41.496Z,4.71
2018-02-17T08:35:22.072Z,4.6
2018-02-17T08:36:02.843Z,4.66
2018-02-17T08:36:43.427Z,4.71
2018-02-17T08:37:24.023Z,4.63
2018-02-17T08:38:04.619Z,4.66
2018-02-17T08:38:45.272Z,4.59
2018-02-17T08:39:26.559Z,4.66
2018-02-17T08:40:07.437Z,4.6
2018-02-17T08:40:48.435Z,4.63
2018-02-17T08:41:30.222Z,4.62
2018-02-17T08:42:11.190Z,4.68
2018-02-17T08:42:52.240Z,4.63
2018-02-17T08:43:32.810Z,4.68
2018-02-17T08:44:13.489Z,4.58
2018-02-17T08:44:54.041Z,4.62
2018-02-17T08:45:35.911Z,4.59
2018-02-17T08:46:16.471Z,4.66
2018-02-17T08:46:57.035Z,4.62
2018-02-17T08:47:37.663Z,4.63
2018-02-17T08:48:18.244Z,4.75
2018-02-17T08:48:59.376Z,4.7
2018-02-17T08:49:39.978Z,4.67
2018-02-17T08:50:20.539Z,4.6
2018-02-17T08:51:01.090Z,4.73
2018-02-17T08:51:41.642Z,4.67
2018-02-17T08:52:22.237Z,4.71
2018-02-17T08:53:02.792Z,4.58
2018-02-17T08:53:43.485Z,4.71
2018-02-17T08:54:24.094Z,4.66
2018-02-17T08:55:04.745Z,4.5
2018-02-17T08:55:45.325Z,4.7
2018-02-17T08:56:26.001Z,4.7
2018-02-17T09:01:43.108Z,4.63
2018-02-17T09:02:23.722Z,4.68
2018-02-17T09:03:05.713Z,4.75
2018-02-17T09:03:46.717Z,4.58
2018-02-17T09:04:27.656Z,4.66
2018-02-17T09:05:08.235Z,4.67
2018-02-17T09:05:48.813Z,4.71
2018-02-17T09:06:29.422Z,4.86
2018-02-17T09:07:10.006Z,5.12
2018-02-17T09:07:50.559Z,5.29
2018-02-17T09:08:31.100Z,5.54
2018-02-17T09:09:11.653Z,5.8
2018-02-17T09:09:52.198Z,6.01